Banks Springs, Louisiana
Current Conditions -  °F | °C
As of 10:53 AM on Wednesday 22 Oct 2014 (Local Time) from KMLU Reporting Station
Clear Clear  
Wind Chill: 71°   Ceiling: Unl
Heat Index: 71°   Visibility: 10mi
Dew Point: 53°   Wind: 7mph
Humidity: 53%   Direction: NA
Pressure: 30.19"   Gusts: NA
Location:  32.1631°N, 92.1971°W
Report Text: KMLU 221553Z VRB06KT 10SM CLR 22/12 A3019 RMK AO2 SLP222 T02170117
Loading
Personal Weather Stations






























Interactive Weather Map
Tropical Storm Tracking
New forecast layout! Learn more

10-Day Weather Forecast

Advertisements
Track Severe Weather on mobile